sensor_id;sensor_type;location;lat;lon;timestamp;pressure;altitude;pressure_sealevel;temperature;humidity
80124;BME280;69433;48.642;9.142;2023-05-09T00:00:25;97262.25;;;22.84;44.29
80124;BME280;69433;48.642;9.142;2023-05-09T00:02:52;97264.59;;;22.78;44.44
80124;BME280;69433;48.642;9.142;2023-05-09T00:05:19;97260.78;;;22.72;44.50
80124;BME280;69433;48.642;9.142;2023-05-09T00:07:45;97251.59;;;22.73;44.44
80124;BME280;69433;48.642;9.142;2023-05-09T00:10:17;97257.06;;;22.63;44.81
80124;BME280;69433;48.642;9.142;2023-05-09T00:12:42;97256.44;;;22.48;45.09
80124;BME280;69433;48.642;9.142;2023-05-09T00:15:08;97256.44;;;22.48;45.09
80124;BME280;69433;48.642;9.142;2023-05-09T00:17:33;97263.69;;;22.47;45.07
80124;BME280;69433;48.642;9.142;2023-05-09T00:20:00;97251.84;;;22.45;45.17
80124;BME280;69433;48.642;9.142;2023-05-09T00:22:26;97251.88;;;22.41;45.11
80124;BME280;69433;48.642;9.142;2023-05-09T00:24:52;97252.69;;;22.35;45.32
80124;BME280;69433;48.642;9.142;2023-05-09T00:27:17;97239.69;;;22.37;45.20
80124;BME280;69433;48.642;9.142;2023-05-09T00:29:43;97244.28;;;22.36;45.06
80124;BME280;69433;48.642;9.142;2023-05-09T00:32:08;97243.56;;;22.29;45.26
80124;BME280;69433;48.642;9.142;2023-05-09T00:34:40;97235.94;;;22.24;45.52
80124;BME280;69433;48.642;9.142;2023-05-09T00:37:05;97243.19;;;22.27;45.17
80124;BME280;69433;48.642;9.142;2023-05-09T00:39:35;97229.75;;;22.30;45.02
80124;BME280;69433;48.642;9.142;2023-05-09T00:42:00;97235.88;;;22.34;45.15
80124;BME280;69433;48.642;9.142;2023-05-09T00:44:27;97239.28;;;22.38;44.92
80124;BME280;69433;48.642;9.142;2023-05-09T00:46:53;97238.88;;;22.40;44.83
80124;BME280;69433;48.642;9.142;2023-05-09T00:49:19;97235.00;;;22.44;44.72
80124;BME280;69433;48.642;9.142;2023-05-09T00:51:44;97223.47;;;22.51;44.53
80124;BME280;69433;48.642;9.142;2023-05-09T00:54:11;97225.81;;;22.49;44.52
80124;BME280;69433;48.642;9.142;2023-05-09T00:56:36;97220.41;;;22.52;44.41
80124;BME280;69433;48.642;9.142;2023-05-09T00:59:02;97223.50;;;22.47;44.39
80124;BME280;69433;48.642;9.142;2023-05-09T01:01:29;97222.00;;;22.43;44.47
80124;BME280;69433;48.642;9.142;2023-05-09T01:03:54;97216.66;;;22.43;44.60
80124;BME280;69433;48.642;9.142;2023-05-09T01:06:37;97210.53;;;22.42;44.59
80124;BME280;69433;48.642;9.142;2023-05-09T01:09:16;97212.44;;;22.42;44.65
80124;BME280;69433;48.642;9.142;2023-05-09T01:11:50;97212.81;;;22.44;44.58
80124;BME280;69433;48.642;9.142;2023-05-09T01:14:52;97213.19;;;22.46;44.53
80124;BME280;69433;48.642;9.142;2023-05-09T01:20:19;97209.38;;;22.43;44.62
80124;BME280;69433;48.642;9.142;2023-05-09T01:22:54;97208.19;;;22.48;44.43
80124;BME280;69433;48.642;9.142;2023-05-09T01:25:34;97208.19;;;22.48;44.59
80124;BME280;69433;48.642;9.142;2023-05-09T01:28:32;97205.16;;;22.46;44.44
80124;BME280;69433;48.642;9.142;2023-05-09T01:30:58;97208.84;;;22.59;44.24
80124;BME280;69433;48.642;9.142;2023-05-09T01:33:25;97210.09;;;22.88;43.82
80124;BME280;69433;48.642;9.142;2023-05-09T01:35:58;97206.03;;;23.11;43.19
80124;BME280;69433;48.642;9.142;2023-05-09T01:38:31;97203.91;;;23.29;42.60
80124;BME280;69433;48.642;9.142;2023-05-09T01:40:57;97199.53;;;23.42;42.54
80124;BME280;69433;48.642;9.142;2023-05-09T01:43:26;97200.19;;;23.53;42.51
80124;BME280;69433;48.642;9.142;2023-05-09T01:45:54;97197.00;;;23.62;42.36
80124;BME280;69433;48.642;9.142;2023-05-09T01:48:20;97199.97;;;23.67;41.79
80124;BME280;69433;48.642;9.142;2023-05-09T01:50:50;97189.88;;;23.75;41.70
80124;BME280;69433;48.642;9.142;2023-05-09T01:53:18;97190.59;;;23.79;41.49
80124;BME280;69433;48.642;9.142;2023-05-09T01:55:46;97184.44;;;23.82;41.51
80124;BME280;69433;48.642;9.142;2023-05-09T01:58:13;97189.34;;;23.87;41.50
80124;BME280;69433;48.642;9.142;2023-05-09T02:00:40;97187.38;;;23.91;41.76
80124;BME280;69433;48.642;9.142;2023-05-09T02:03:06;97179.25;;;23.95;41.49
80124;BME280;69433;48.642;9.142;2023-05-09T02:05:32;97183.81;;;23.98;41.29
80124;BME280;69433;48.642;9.142;2023-05-09T02:07:59;97189.53;;;24.00;41.22
80124;BME280;69433;48.642;9.142;2023-05-09T02:10:26;97187.22;;;24.02;41.29
80124;BME280;69433;48.642;9.142;2023-05-09T02:12:58;97188.28;;;24.04;40.92
80124;BME280;69433;48.642;9.142;2023-05-09T02:15:23;97187.88;;;24.06;41.11
80124;BME280;69433;48.642;9.142;2023-05-09T02:17:48;97191.28;;;24.10;40.87
80124;BME280;69433;48.642;9.142;2023-05-09T02:20:18;97189.38;;;24.11;41.07
80124;BME280;69433;48.642;9.142;2023-05-09T02:22:43;97193.16;;;24.13;40.95
80124;BME280;69433;48.642;9.142;2023-05-09T02:25:11;97190.06;;;24.15;41.10
80124;BME280;69433;48.642;9.142;2023-05-09T02:27:43;97186.97;;;24.16;40.96
80124;BME280;69433;48.642;9.142;2023-05-09T02:30:13;97191.94;;;24.18;40.73
80124;BME280;69433;48.642;9.142;2023-05-09T02:32:42;97186.16;;;24.19;40.85
80124;BME280;69433;48.642;9.142;2023-05-09T02:35:08;97175.41;;;24.19;40.55
80124;BME280;69433;48.642;9.142;2023-05-09T02:37:34;97174.25;;;24.20;40.76
80124;BME280;69433;48.642;9.142;2023-05-09T02:40:00;97174.59;;;24.22;40.59
80124;BME280;69433;48.642;9.142;2023-05-09T02:42:26;97184.19;;;24.23;40.52
80124;BME280;69433;48.642;9.142;2023-05-09T02:44:53;97170.75;;;24.23;40.69
80124;BME280;69433;48.642;9.142;2023-05-09T02:47:19;97173.78;;;24.25;40.39
80124;BME280;69433;48.642;9.142;2023-05-09T02:49:44;97168.41;;;24.25;40.31
80124;BME280;69433;48.642;9.142;2023-05-09T02:52:15;97164.56;;;24.26;40.37
80124;BME280;69433;48.642;9.142;2023-05-09T02:54:40;97159.97;;;24.27;40.36
80124;BME280;69433;48.642;9.142;2023-05-09T02:57:06;97168.78;;;24.27;40.38
80124;BME280;69433;48.642;9.142;2023-05-09T02:59:32;97162.25;;;24.28;40.62
80124;BME280;69433;48.642;9.142;2023-05-09T03:01:57;97156.09;;;24.28;40.40
80124;BME280;69433;48.642;9.142;2023-05-09T03:04:23;97147.63;;;24.29;40.69
80124;BME280;69433;48.642;9.142;2023-05-09T03:06:49;97151.41;;;24.32;40.64
80124;BME280;69433;48.642;9.142;2023-05-09T03:09:15;97153.28;;;24.35;40.58
80124;BME280;69433;48.642;9.142;2023-05-09T03:11:40;97146.34;;;24.37;40.10
80124;BME280;69433;48.642;9.142;2023-05-09T03:14:06;97145.16;;;24.38;40.25
80124;BME280;69433;48.642;9.142;2023-05-09T03:16:32;97146.69;;;24.39;40.03
80124;BME280;69433;48.642;9.142;2023-05-09T03:18:58;97148.97;;;24.41;40.12
80124;BME280;69433;48.642;9.142;2023-05-09T03:21:24;97149.72;;;24.41;40.16
80124;BME280;69433;48.642;9.142;2023-05-09T03:23:50;97145.84;;;24.42;40.33
80124;BME280;69433;48.642;9.142;2023-05-09T03:26:15;97147.38;;;24.44;40.08
80124;BME280;69433;48.642;9.142;2023-05-09T03:28:50;97135.88;;;24.43;40.25
80124;BME280;69433;48.642;9.142;2023-05-09T03:31:17;97133.38;;;24.32;40.18
80124;BME280;69433;48.642;9.142;2023-05-09T03:33:42;97135.72;;;24.30;40.36
80124;BME280;69433;48.642;9.142;2023-05-09T03:36:08;97137.69;;;24.26;40.31
80124;BME280;69433;48.642;9.142;2023-05-09T03:38:33;97132.72;;;24.25;40.35
80124;BME280;69433;48.642;9.142;2023-05-09T03:41:01;97131.22;;;24.24;40.37
80124;BME280;69433;48.642;9.142;2023-05-09T03:43:26;97129.75;;;24.19;40.21
80124;BME280;69433;48.642;9.142;2023-05-09T03:45:51;97127.06;;;24.19;40.49
80124;BME280;69433;48.642;9.142;2023-05-09T03:48:16;97126.28;;;24.19;40.71
80124;BME280;69433;48.642;9.142;2023-05-09T03:50:42;97130.13;;;24.21;40.34
80124;BME280;69433;48.642;9.142;2023-05-09T03:53:08;97130.81;;;24.25;40.29
80124;BME280;69433;48.642;9.142;2023-05-09T03:55:33;97130.75;;;24.29;40.44
80124;BME280;69433;48.642;9.142;2023-05-09T03:57:58;97131.88;;;24.31;40.40
80124;BME280;69433;48.642;9.142;2023-05-09T04:00:27;97125.66;;;24.34;40.45
80124;BME280;69433;48.642;9.142;2023-05-09T04:02:52;97116.44;;;24.35;40.19
80124;BME280;69433;48.642;9.142;2023-05-09T04:05:20;97119.47;;;24.37;40.36
80124;BME280;69433;48.642;9.142;2023-05-09T04:07:45;97121.34;;;24.40;40.14
80124;BME280;69433;48.642;9.142;2023-05-09T04:10:10;97129.72;;;24.42;40.15
80124;BME280;69433;48.642;9.142;2023-05-09T04:12:36;97125.13;;;24.43;40.14
80124;BME280;69433;48.642;9.142;2023-05-09T04:15:01;97122.03;;;24.45;40.04
80124;BME280;69433;48.642;9.142;2023-05-09T04:17:27;97115.47;;;24.46;40.08
80124;BME280;69433;48.642;9.142;2023-05-09T04:19:52;97123.53;;;24.46;40.06
80124;BME280;69433;48.642;9.142;2023-05-09T04:22:17;97129.63;;;24.50;40.40
80124;BME280;69433;48.642;9.142;2023-05-09T04:24:43;97125.75;;;24.51;40.32
80124;BME280;69433;48.642;9.142;2023-05-09T04:27:08;97137.69;;;24.50;40.11
80124;BME280;69433;48.642;9.142;2023-05-09T04:29:35;97131.88;;;24.51;40.08
80124;BME280;69433;48.642;9.142;2023-05-09T04:32:01;97131.88;;;24.51;40.51
80124;BME280;69433;48.642;9.142;2023-05-09T04:34:30;97136.50;;;24.51;40.40
80124;BME280;69433;48.642;9.142;2023-05-09T04:36:57;97129.94;;;24.52;40.07
80124;BME280;69433;48.642;9.142;2023-05-09T04:39:23;97141.03;;;24.54;40.08
80124;BME280;69433;48.642;9.142;2023-05-09T04:41:48;97135.31;;;24.52;40.09
80124;BME280;69433;48.642;9.142;2023-05-09T04:44:14;97140.28;;;24.53;40.43
80124;BME280;69433;48.642;9.142;2023-05-09T04:46:43;97130.28;;;24.54;40.34
80124;BME280;69433;48.642;9.142;2023-05-09T04:49:08;97134.09;;;24.56;39.92
80124;BME280;69433;48.642;9.142;2023-05-09T04:51:33;97127.19;;;24.55;40.37
80124;BME280;69433;48.642;9.142;2023-05-09T04:53:59;97128.72;;;24.56;40.26
80124;BME280;69433;48.642;9.142;2023-05-09T04:56:24;97121.00;;;24.58;39.89
80124;BME280;69433;48.642;9.142;2023-05-09T04:58:49;97129.06;;;24.58;39.86
80124;BME280;69433;48.642;9.142;2023-05-09T05:01:15;97129.06;;;24.58;40.21
80124;BME280;69433;48.642;9.142;2023-05-09T05:03:41;97129.44;;;24.60;39.88
80124;BME280;69433;48.642;9.142;2023-05-09T05:06:06;97130.16;;;24.61;40.04
80124;BME280;69433;48.642;9.142;2023-05-09T05:08:31;97124.72;;;24.64;39.75
80124;BME280;69433;48.642;9.142;2023-05-09T05:10:57;97129.34;;;24.64;40.16
80124;BME280;69433;48.642;9.142;2023-05-09T05:13:22;97134.72;;;24.64;39.72
80124;BME280;69433;48.642;9.142;2023-05-09T05:15:48;97130.84;;;24.65;40.07
80124;BME280;69433;48.642;9.142;2023-05-09T05:18:13;97131.63;;;24.65;39.74
80124;BME280;69433;48.642;9.142;2023-05-09T05:20:39;97130.03;;;24.68;39.99
80124;BME280;69433;48.642;9.142;2023-05-09T05:23:05;97114.66;;;24.68;39.61
80124;BME280;69433;48.642;9.142;2023-05-09T05:25:31;97109.28;;;24.68;40.09
80124;BME280;69433;48.642;9.142;2023-05-09T05:27:56;97117.28;;;24.72;39.85
80124;BME280;69433;48.642;9.142;2023-05-09T05:30:21;97111.91;;;24.72;39.91
80124;BME280;69433;48.642;9.142;2023-05-09T05:32:46;97109.97;;;24.72;39.63
80124;BME280;69433;48.642;9.142;2023-05-09T05:35:12;97099.22;;;24.72;39.65
80124;BME280;69433;48.642;9.142;2023-05-09T05:37:38;97106.09;;;24.73;39.88
80124;BME280;69433;48.642;9.142;2023-05-09T05:40:04;97112.25;;;24.74;39.55
80124;BME280;69433;48.642;9.142;2023-05-09T05:42:30;97113.75;;;24.75;39.61
80124;BME280;69433;48.642;9.142;2023-05-09T05:44:56;97114.53;;;24.75;39.91
80124;BME280;69433;48.642;9.142;2023-05-09T05:47:21;97119.91;;;24.75;39.75
80124;BME280;69433;48.642;9.142;2023-05-09T05:49:46;97119.16;;;24.75;39.54
80124;BME280;69433;48.642;9.142;2023-05-09T05:52:12;97109.91;;;24.76;39.48
80124;BME280;69433;48.642;9.142;2023-05-09T05:54:37;97109.91;;;24.76;39.58
80124;BME280;69433;48.642;9.142;2023-05-09T05:57:02;97106.06;;;24.77;39.59
80124;BME280;69433;48.642;9.142;2023-05-09T05:59:27;97108.31;;;24.78;39.55
80124;BME280;69433;48.642;9.142;2023-05-09T06:01:53;97109.84;;;24.80;39.48
80124;BME280;69433;48.642;9.142;2023-05-09T06:04:18;97111.78;;;24.79;39.81
80124;BME280;69433;48.642;9.142;2023-05-09T06:06:44;97113.28;;;24.80;39.64
80124;BME280;69433;48.642;9.142;2023-05-09T06:09:09;97107.88;;;24.80;40.13
80124;BME280;69433;48.642;9.142;2023-05-09T06:11:34;97112.84;;;24.82;39.51
80124;BME280;69433;48.642;9.142;2023-05-09T06:14:00;97097.47;;;24.82;39.44
80124;BME280;69433;48.642;9.142;2023-05-09T06:16:26;97099.00;;;24.83;39.72
80124;BME280;69433;48.642;9.142;2023-05-09T06:18:51;97093.63;;;24.83;39.64
80124;BME280;69433;48.642;9.142;2023-05-09T06:21:17;97102.03;;;24.85;39.76
80124;BME280;69433;48.642;9.142;2023-05-09T06:23:42;97090.53;;;24.85;39.77
80124;BME280;69433;48.642;9.142;2023-05-09T06:26:13;97087.78;;;24.88;39.54
80124;BME280;69433;48.642;9.142;2023-05-09T06:28:39;97094.66;;;24.89;39.41
80124;BME280;69433;48.642;9.142;2023-05-09T06:31:04;97091.91;;;24.93;39.55
80124;BME280;69433;48.642;9.142;2023-05-09T06:33:29;97089.56;;;24.95;39.29
80124;BME280;69433;48.642;9.142;2023-05-09T06:35:58;97082.28;;;24.95;39.49
80124;BME280;69433;48.642;9.142;2023-05-09T06:38:24;97086.81;;;24.98;39.58
80124;BME280;69433;48.642;9.142;2023-05-09T06:40:49;97085.63;;;24.99;39.40
80124;BME280;69433;48.642;9.142;2023-05-09T06:43:14;97080.25;;;24.99;39.28
80124;BME280;69433;48.642;9.142;2023-05-09T06:45:40;97077.91;;;25.01;39.10
80124;BME280;69433;48.642;9.142;2023-05-09T06:48:05;97078.94;;;25.07;39.44
80124;BME280;69433;48.642;9.142;2023-05-09T06:50:30;97076.91;;;25.11;39.13
80124;BME280;69433;48.642;9.142;2023-05-09T06:52:56;97074.56;;;25.13;39.43
80124;BME280;69433;48.642;9.142;2023-05-09T06:55:28;97069.94;;;25.14;39.26
80124;BME280;69433;48.642;9.142;2023-05-09T06:57:53;97074.56;;;25.13;39.46
80124;BME280;69433;48.642;9.142;2023-05-09T07:00:19;97074.56;;;25.13;39.09
80124;BME280;69433;48.642;9.142;2023-05-09T07:02:44;97053.81;;;25.14;39.51
80124;BME280;69433;48.642;9.142;2023-05-09T07:05:09;97063.06;;;25.13;39.41
80124;BME280;69433;48.642;9.142;2023-05-09T07:07:35;97056.09;;;25.16;39.33
80124;BME280;69433;48.642;9.142;2023-05-09T07:10:00;97058.25;;;25.21;39.18
80124;BME280;69433;48.642;9.142;2023-05-09T07:12:30;97050.53;;;25.23;39.02
80124;BME280;69433;48.642;9.142;2023-05-09T07:14:55;97043.16;;;25.27;39.09
80124;BME280;69433;48.642;9.142;2023-05-09T07:17:20;97043.91;;;25.27;39.43
80124;BME280;69433;48.642;9.142;2023-05-09T07:19:47;97037.25;;;25.32;39.28
80124;BME280;69433;48.642;9.142;2023-05-09T07:22:12;97038.78;;;25.33;39.23
80124;BME280;69433;48.642;9.142;2023-05-09T07:24:37;97039.47;;;25.37;39.22
80124;BME280;69433;48.642;9.142;2023-05-09T07:27:02;97026.31;;;25.39;39.17
80124;BME280;69433;48.642;9.142;2023-05-09T07:29:34;97029.28;;;25.44;38.90
80124;BME280;69433;48.642;9.142;2023-05-09T07:31:59;97017.41;;;25.42;39.23
80124;BME280;69433;48.642;9.142;2023-05-09T07:34:25;97011.63;;;25.43;39.15
80124;BME280;69433;48.642;9.142;2023-05-09T07:36:50;97016.91;;;25.47;38.84
80124;BME280;69433;48.642;9.142;2023-05-09T07:39:17;97002.25;;;25.48;38.96
80124;BME280;69433;48.642;9.142;2023-05-09T07:41:43;96995.69;;;25.49;39.22
80124;BME280;69433;48.642;9.142;2023-05-09T07:44:08;97000.66;;;25.50;39.11
80124;BME280;69433;48.642;9.142;2023-05-09T07:46:36;96989.81;;;25.54;39.03
80124;BME280;69433;48.642;9.142;2023-05-09T07:49:08;96985.19;;;25.55;38.94
80124;BME280;69433;48.642;9.142;2023-05-09T07:51:33;96982.84;;;25.57;38.86
80124;BME280;69433;48.642;9.142;2023-05-09T07:53:59;96977.38;;;25.60;38.83
80124;BME280;69433;48.642;9.142;2023-05-09T07:56:24;96983.09;;;25.62;38.71
80124;BME280;69433;48.642;9.142;2023-05-09T07:58:50;96980.75;;;25.64;38.81
80124;BME280;69433;48.642;9.142;2023-05-09T08:01:15;96985.72;;;25.66;38.53
80124;BME280;69433;48.642;9.142;2023-05-09T08:03:41;96966.44;;;25.67;38.73
80124;BME280;69433;48.642;9.142;2023-05-09T08:06:06;96959.88;;;25.68;38.47
80124;BME280;69433;48.642;9.142;2023-05-09T08:08:32;96956.31;;;25.71;39.00
80124;BME280;69433;48.642;9.142;2023-05-09T08:10:57;96950.94;;;25.71;38.69
80124;BME280;69433;48.642;9.142;2023-05-09T08:13:22;96957.44;;;25.74;38.79
80124;BME280;69433;48.642;9.142;2023-05-09T08:15:48;96952.38;;;25.76;38.67
80124;BME280;69433;48.642;9.142;2023-05-09T08:18:13;96952.38;;;25.76;38.51
80124;BME280;69433;48.642;9.142;2023-05-09T08:20:39;96948.16;;;25.75;38.47
80124;BME280;69433;48.642;9.142;2023-05-09T08:23:05;96948.59;;;25.73;38.90
80124;BME280;69433;48.642;9.142;2023-05-09T08:25:30;96943.97;;;25.74;38.92
80124;BME280;69433;48.642;9.142;2023-05-09T08:27:56;96939.75;;;25.73;38.89
80124;BME280;69433;48.642;9.142;2023-05-09T08:30:21;96935.53;;;25.72;38.79
80124;BME280;69433;48.642;9.142;2023-05-09T08:32:49;96932.44;;;25.73;39.01
80124;BME280;69433;48.642;9.142;2023-05-09T08:35:17;96925.53;;;25.72;38.73
80124;BME280;69433;48.642;9.142;2023-05-09T08:37:42;96926.28;;;25.73;38.78
80124;BME280;69433;48.642;9.142;2023-05-09T08:40:08;96920.16;;;25.72;38.50
80124;BME280;69433;48.642;9.142;2023-05-09T08:42:35;96919.31;;;25.75;38.47
80124;BME280;69433;48.642;9.142;2023-05-09T08:45:08;96916.28;;;25.73;38.52
80124;BME280;69433;48.642;9.142;2023-05-09T08:47:35;96917.78;;;25.74;38.78
80124;BME280;69433;48.642;9.142;2023-05-09T08:50:02;96915.84;;;25.75;38.86
80124;BME280;69433;48.642;9.142;2023-05-09T08:52:32;96917.38;;;25.76;38.79
80124;BME280;69433;48.642;9.142;2023-05-09T08:54:58;96919.63;;;25.77;38.56
80124;BME280;69433;48.642;9.142;2023-05-09T08:57:25;96915.41;;;25.76;38.60
80124;BME280;69433;48.642;9.142;2023-05-09T08:59:51;96914.69;;;25.76;38.81
80124;BME280;69433;48.642;9.142;2023-05-09T09:02:17;96910.88;;;25.73;38.75
80124;BME280;69433;48.642;9.142;2023-05-09T09:04:42;96921.66;;;25.73;38.73
80124;BME280;69433;48.642;9.142;2023-05-09T09:07:09;96918.97;;;25.73;38.77
80124;BME280;69433;48.642;9.142;2023-05-09T09:09:36;96910.22;;;25.69;38.65
80124;BME280;69433;48.642;9.142;2023-05-09T09:12:05;96907.94;;;25.68;38.88
80124;BME280;69433;48.642;9.142;2023-05-09T09:14:36;96903.75;;;25.67;38.87
80124;BME280;69433;48.642;9.142;2023-05-09T09:17:01;96900.31;;;25.66;38.55
80124;BME280;69433;48.642;9.142;2023-05-09T09:19:32;96893.41;;;25.65;38.87
80124;BME280;69433;48.642;9.142;2023-05-09T09:21:58;96890.72;;;25.65;38.69
80124;BME280;69433;48.642;9.142;2023-05-09T09:24:26;96887.28;;;25.65;38.56
80124;BME280;69433;48.642;9.142;2023-05-09T09:26:52;96888.03;;;25.65;39.02
80124;BME280;69433;48.642;9.142;2023-05-09T09:29:18;96878.78;;;25.66;38.82
80124;BME280;69433;48.642;9.142;2023-05-09T09:31:45;96878.31;;;25.68;38.58
80124;BME280;69433;48.642;9.142;2023-05-09T09:34:11;96880.59;;;25.69;38.57
80124;BME280;69433;48.642;9.142;2023-05-09T09:36:38;96876.41;;;25.68;38.79
80124;BME280;69433;48.642;9.142;2023-05-09T09:39:04;96869.06;;;25.69;39.01
80124;BME280;69433;48.642;9.142;2023-05-09T09:41:36;96876.41;;;25.68;39.00
80124;BME280;69433;48.642;9.142;2023-05-09T09:44:09;96874.78;;;25.71;38.69
80124;BME280;69433;48.642;9.142;2023-05-09T09:46:51;96871.59;;;25.76;38.43
80124;BME280;69433;48.642;9.142;2023-05-09T09:49:27;96863.81;;;25.78;38.74
80124;BME280;69433;48.642;9.142;2023-05-09T09:51:55;96863.81;;;25.78;38.68
80124;BME280;69433;48.642;9.142;2023-05-09T09:54:21;96858.34;;;25.81;38.47
80124;BME280;69433;48.642;9.142;2023-05-09T09:56:50;96851.78;;;25.82;38.61
80124;BME280;69433;48.642;9.142;2023-05-09T09:59:20;96845.22;;;25.83;38.66
80124;BME280;69433;48.642;9.142;2023-05-09T10:04:27;96826.69;;;25.85;38.29
80124;BME280;69433;48.642;9.142;2023-05-09T10:06:53;96831.75;;;25.83;38.80
80124;BME280;69433;48.642;9.142;2023-05-09T10:09:21;96822.91;;;25.83;38.72
80124;BME280;69433;48.642;9.142;2023-05-09T10:11:48;96820.22;;;25.83;38.59
80124;BME280;69433;48.642;9.142;2023-05-09T10:14:14;96817.41;;;25.86;38.26
80124;BME280;69433;48.642;9.142;2023-05-09T10:16:41;96811.94;;;25.90;38.76
80124;BME280;69433;48.642;9.142;2023-05-09T10:19:08;96803.41;;;25.92;38.16
80124;BME280;69433;48.642;9.142;2023-05-09T10:21:36;96793.06;;;25.90;38.57
80124;BME280;69433;48.642;9.142;2023-05-09T10:24:03;96799.22;;;25.91;38.46
80124;BME280;69433;48.642;9.142;2023-05-09T10:26:31;96795.34;;;25.92;38.43
80124;BME280;69433;48.642;9.142;2023-05-09T10:29:00;96793.81;;;25.91;38.31
80124;BME280;69433;48.642;9.142;2023-05-09T10:31:27;96788.00;;;25.92;38.45
80124;BME280;69433;48.642;9.142;2023-05-09T10:33:53;96788.44;;;25.91;38.57
80124;BME280;69433;48.642;9.142;2023-05-09T10:36:31;96794.16;;;25.93;38.42
80124;BME280;69433;48.642;9.142;2023-05-09T10:38:57;96783.25;;;25.96;38.40
80124;BME280;69433;48.642;9.142;2023-05-09T10:41:22;96774.44;;;25.96;38.11
80124;BME280;69433;48.642;9.142;2023-05-09T10:43:48;96777.88;;;25.96;38.37
80124;BME280;69433;48.642;9.142;2023-05-09T10:46:16;96773.69;;;25.95;38.59
80124;BME280;69433;48.642;9.142;2023-05-09T10:48:42;96771.31;;;25.97;38.05
80124;BME280;69433;48.642;9.142;2023-05-09T10:51:08;96772.28;;;26.03;38.48
80124;BME280;69433;48.642;9.142;2023-05-09T10:53:40;96768.09;;;26.02;38.40
80124;BME280;69433;48.642;9.142;2023-05-09T10:56:06;96758.38;;;26.05;38.06
80124;BME280;69433;48.642;9.142;2023-05-09T10:58:34;96751.03;;;26.05;37.99
80124;BME280;69433;48.642;9.142;2023-05-09T11:01:05;96742.09;;;26.08;37.94
80124;BME280;69433;48.642;9.142;2023-05-09T11:03:51;96740.59;;;26.07;38.01
80124;BME280;69433;48.642;9.142;2023-05-09T11:06:49;96730.56;;;26.08;38.29
80124;BME280;69433;48.642;9.142;2023-05-09T11:09:34;96731.66;;;26.10;38.30
80124;BME280;69433;48.642;9.142;2023-05-09T11:12:13;96724.34;;;26.11;38.23
80124;BME280;69433;48.642;9.142;2023-05-09T11:14:43;96718.50;;;26.12;38.02
80124;BME280;69433;48.642;9.142;2023-05-09T11:22:23;96705.78;;;26.13;38.28
80124;BME280;69433;48.642;9.142;2023-05-09T11:24:51;96702.22;;;26.16;37.84
80124;BME280;69433;48.642;9.142;2023-05-09T11:27:23;96700.59;;;26.18;37.73
80124;BME280;69433;48.642;9.142;2023-05-09T11:29:50;96687.88;;;26.19;38.20
80124;BME280;69433;48.642;9.142;2023-05-09T11:32:17;96690.59;;;26.19;38.12
80124;BME280;69433;48.642;9.142;2023-05-09T11:34:43;96685.19;;;26.19;38.25
80124;BME280;69433;48.642;9.142;2023-05-09T11:37:09;96687.03;;;26.22;38.15
80124;BME280;69433;48.642;9.142;2023-05-09T11:39:54;96676.69;;;26.20;37.82
80124;BME280;69433;48.642;9.142;2023-05-09T11:42:22;96677.00;;;26.22;38.10
80124;BME280;69433;48.642;9.142;2023-05-09T11:44:47;96664.38;;;26.19;38.22
80124;BME280;69433;48.642;9.142;2023-05-09T11:47:13;96666.66;;;26.21;38.04
80124;BME280;69433;48.642;9.142;2023-05-09T11:49:42;96664.72;;;26.21;38.11
80124;BME280;69433;48.642;9.142;2023-05-09T11:52:07;96656.63;;;26.21;37.91
80124;BME280;69433;48.642;9.142;2023-05-09T11:54:36;96646.59;;;26.22;38.02
80124;BME280;69433;48.642;9.142;2023-05-09T11:57:05;96647.91;;;26.17;37.83
80124;BME280;69433;48.642;9.142;2023-05-09T11:59:34;96646.06;;;26.14;37.89
80124;BME280;69433;48.642;9.142;2023-05-09T12:02:04;96646.19;;;26.11;38.30
80124;BME280;69433;48.642;9.142;2023-05-09T12:04:30;96642.75;;;26.10;38.38
80124;BME280;69433;48.642;9.142;2023-05-09T12:07:00;96632.06;;;26.07;38.15
80124;BME280;69433;48.642;9.142;2023-05-09T12:09:33;96626.38;;;26.05;38.08
80124;BME280;69433;48.642;9.142;2023-05-09T12:11:59;96622.19;;;26.04;38.19
80124;BME280;69433;48.642;9.142;2023-05-09T12:14:29;96625.19;;;26.06;38.54
80124;BME280;69433;48.642;9.142;2023-05-09T12:16:55;96609.59;;;26.01;38.09
80124;BME280;69433;48.642;9.142;2023-05-09T12:19:25;96618.84;;;26.00;38.35
80124;BME280;69433;48.642;9.142;2023-05-09T12:21:58;96607.75;;;25.98;38.23
80124;BME280;69433;48.642;9.142;2023-05-09T12:24:27;96607.88;;;25.94;38.31
80124;BME280;69433;48.642;9.142;2023-05-09T12:26:54;96604.44;;;25.94;38.63
80124;BME280;69433;48.642;9.142;2023-05-09T12:29:28;96605.63;;;25.93;38.34
80124;BME280;69433;48.642;9.142;2023-05-09T12:31:54;96603.03;;;25.89;38.63
80124;BME280;69433;48.642;9.142;2023-05-09T12:34:20;96595.28;;;25.91;38.49
80124;BME280;69433;48.642;9.142;2023-05-09T12:36:46;96581.06;;;25.91;38.50
80124;BME280;69433;48.642;9.142;2023-05-09T12:39:18;96580.19;;;25.94;38.35
80124;BME280;69433;48.642;9.142;2023-05-09T12:41:50;96577.19;;;25.92;38.56
80124;BME280;69433;48.642;9.142;2023-05-09T12:44:25;96574.47;;;25.92;38.63
80124;BME280;69433;48.642;9.142;2023-05-09T12:47:00;96566.09;;;25.90;38.62
80124;BME280;69433;48.642;9.142;2023-05-09T12:49:26;96560.38;;;25.87;38.79
80124;BME280;69433;48.642;9.142;2023-05-09T12:51:53;96561.56;;;25.86;38.79
80124;BME280;69433;48.642;9.142;2023-05-09T12:54:23;96567.69;;;25.87;38.68
80124;BME280;69433;48.642;9.142;2023-05-09T12:56:49;96565.00;;;25.87;38.62
80124;BME280;69433;48.642;9.142;2023-05-09T12:59:25;96554.97;;;25.87;38.88
80124;BME280;69433;48.642;9.142;2023-05-09T13:01:58;96554.69;;;25.85;38.89
80124;BME280;69433;48.642;9.142;2023-05-09T13:04:25;96554.22;;;25.87;38.82
80124;BME280;69433;48.642;9.142;2023-05-09T13:06:54;96547.34;;;25.86;38.46
80124;BME280;69433;48.642;9.142;2023-05-09T13:09:26;96537.31;;;25.86;38.70
80124;BME280;69433;48.642;9.142;2023-05-09T13:11:52;96538.81;;;25.87;38.76